Time;durP1;ratioP1;P1;durP2;ratioP2;P2;SDS_P1;SDS_P2;PMS_P1;PMS_P2;Temp;Humidity;BMP_temperature;BMP_pressure;BME280_temperature;BME280_humidity;BME280_pressure;Samples;Min_cycle;Max_cycle;Signal;HPM_P1;HPM_P2
2022/01/09 00:00:18;;;;;;;;;4.75;2.00;;;;;7.48;69.53;99404.16;5058124;28;45376;-53
2022/01/09 00:02:44;;;;;;;;;1.50;1.50;;;;;7.51;69.85;99414.53;5057668;28;45222;-57
2022/01/09 00:05:11;;;;;;;;;1.00;1.00;;;;;7.49;69.87;99432.31;5058243;28;45484;-56
2022/01/09 00:07:37;;;;;;;;;2.50;1.00;;;;;7.46;69.47;99432.50;5039878;28;47660;-55
2022/01/09 00:10:05;;;;;;;;;4.25;1.00;;;;;7.53;69.39;99446.19;5039156;28;45455;-55
2022/01/09 00:12:31;;;;;;;;;1.00;1.00;;;;;7.49;69.71;99437.59;5058019;28;45413;-57
2022/01/09 00:14:56;;;;;;;;;9.00;1.25;;;;;7.45;69.63;99449.31;5057810;28;46056;-57
2022/01/09 00:17:22;;;;;;;;;3.75;1.00;;;;;7.44;69.46;99450.28;5057437;28;45276;-57
2022/01/09 00:19:47;;;;;;;;;1.00;1.00;;;;;7.38;69.31;99451.47;5039308;28;45438;-55
2022/01/09 00:22:15;;;;;;;;;3.25;1.25;;;;;7.39;69.55;99469.03;5057407;28;45296;-52
2022/01/09 00:24:40;;;;;;;;;8.00;0.00;;;;;7.31;69.28;99450.16;5023276;28;45613;-57
2022/01/09 00:27:06;;;;;;;;;1.00;1.00;;;;;7.25;69.60;99455.81;5039549;28;47988;-57
2022/01/09 00:29:31;;;;;;;;;1.50;1.50;;;;;7.31;70.09;99487.19;5057714;28;45284;-54
2022/01/09 00:31:57;;;;;;;;;1.25;0.00;;;;;7.28;69.59;99486.50;5057621;28;45410;-55
2022/01/09 00:34:22;;;;;;;;;1.50;1.00;;;;;7.28;69.98;99494.44;5057182;28;45557;-54
2022/01/09 00:36:49;;;;;;;;;1.50;1.50;;;;;7.25;70.02;99481.41;5063130;28;45394;-56
2022/01/09 00:39:15;;;;;;;;;4.00;1.50;;;;;7.27;69.80;99493.59;5065149;28;45322;-55
2022/01/09 00:41:40;;;;;;;;;4.75;1.00;;;;;7.25;69.99;99497.28;5057872;28;45363;-55
2022/01/09 00:44:06;;;;;;;;;1.25;1.25;;;;;7.23;69.74;99497.38;5039599;28;45217;-53
2022/01/09 00:46:34;;;;;;;;;2.25;2.25;;;;;7.23;70.71;99513.22;5057244;28;45246;-55
2022/01/09 00:49:01;;;;;;;;;1.00;1.00;;;;;7.24;70.34;99508.78;5056922;28;45357;-55
2022/01/09 00:51:26;;;;;;;;;3.75;1.25;;;;;7.20;70.36;99516.06;5055857;28;45455;-56
2022/01/09 00:53:52;;;;;;;;;2.50;1.25;;;;;7.19;70.64;99535.53;5056893;28;45542;-56
2022/01/09 00:56:17;;;;;;;;;0.75;0.25;;;;;7.18;70.71;99533.81;5038984;28;46230;-54
2022/01/09 00:58:43;;;;;;;;;1.75;1.75;;;;;7.17;69.80;99539.19;5056711;28;45521;-54
2022/01/09 01:01:08;;;;;;;;;1.00;1.00;;;;;7.14;70.00;99542.84;5055028;28;45418;-55
2022/01/09 01:03:34;;;;;;;;;0.00;0.00;;;;;7.00;69.20;99535.72;5057374;28;45631;-54
2022/01/09 01:05:59;;;;;;;;;2.00;2.00;;;;;7.04;69.11;99541.72;5056080;28;45363;-56
2022/01/09 01:08:25;;;;;;;;;4.25;1.25;;;;;7.09;69.11;99569.56;5056558;28;45325;-53
2022/01/09 01:10:50;;;;;;;;;10.50;1.25;;;;;7.05;68.83;99576.00;5056126;28;45391;-59
2022/01/09 01:13:15;;;;;;;;;3.75;1.75;;;;;7.03;68.94;99583.16;5038859;28;45249;-54
2022/01/09 01:15:41;;;;;;;;;1.00;1.00;;;;;7.05;69.05;99599.78;5038907;28;45458;-55
2022/01/09 01:18:06;;;;;;;;;2.50;1.50;;;;;7.05;68.61;99591.84;5056048;28;45719;-56
2022/01/09 01:20:32;;;;;;;;;3.00;1.50;;;;;7.05;68.70;99597.13;5057141;28;45277;-53
2022/01/09 01:22:58;;;;;;;;;2.00;1.00;;;;;7.03;68.52;99599.03;5056393;28;45601;-54
2022/01/09 01:25:25;;;;;;;;;3.50;1.00;;;;;6.95;68.21;99601.25;5056803;28;45491;-54
2022/01/09 01:27:51;;;;;;;;;1.00;1.00;;;;;6.99;69.11;99613.34;5055909;28;45445;-55
2022/01/09 01:30:17;;;;;;;;;1.00;1.00;;;;;6.98;68.75;99616.06;5054944;28;45395;-54
2022/01/09 01:32:43;;;;;;;;;1.00;1.00;;;;;6.97;68.31;99625.78;5056365;28;45473;-53
2022/01/09 01:35:10;;;;;;;;;6.50;0.25;;;;;6.92;69.31;99625.22;5056605;28;45411;-56
2022/01/09 01:37:38;;;;;;;;;2.00;0.50;;;;;6.95;68.77;99642.69;5040619;28;45402;-56
2022/01/09 01:40:06;;;;;;;;;7.50;2.00;;;;;6.98;69.09;99643.34;5056555;28;45396;-56
2022/01/09 01:42:32;;;;;;;;;3.50;2.00;;;;;7.00;68.77;99661.75;5056315;28;45742;-54
2022/01/09 01:44:57;;;;;;;;;1.50;0.75;;;;;7.01;69.65;99676.69;5056006;28;46326;-52
2022/01/09 01:47:23;;;;;;;;;0.00;0.00;;;;;6.94;69.96;99677.97;5059878;28;45465;-57
2022/01/09 01:49:50;;;;;;;;;1.25;1.25;;;;;6.92;71.60;99701.88;5054350;28;45781;-55
2022/01/09 01:52:22;;;;;;;;;5.50;0.00;;;;;6.88;71.69;99692.38;5068011;28;45482;-54
2022/01/09 01:54:47;;;;;;;;;0.25;0.00;;;;;6.77;73.32;99729.09;5018784;28;45347;-56
2022/01/09 01:57:13;;;;;;;;;2.00;1.00;;;;;6.77;75.22;99707.97;5041633;28;45422;-61
2022/01/09 01:59:38;;;;;;;;;1.50;1.50;;;;;6.71;75.27;99722.38;5055762;28;46620;-54
2022/01/09 02:02:04;;;;;;;;;0.50;0.50;;;;;6.69;75.86;99724.25;5056642;28;45790;-54
2022/01/09 02:04:30;;;;;;;;;1.25;1.00;;;;;6.67;75.10;99718.19;5055811;28;45470;-55
2022/01/09 02:06:56;;;;;;;;;4.50;1.50;;;;;6.67;75.03;99727.91;5055463;28;45431;-55
2022/01/09 02:09:24;;;;;;;;;4.00;1.00;;;;;6.63;75.22;99715.78;5055985;28;45672;-56
2022/01/09 02:11:49;;;;;;;;;0.00;0.00;;;;;6.57;74.57;99716.97;5056165;28;45483;-56
2022/01/09 02:14:15;;;;;;;;;3.50;1.00;;;;;6.56;74.81;99738.19;5055560;28;46066;-55
2022/01/09 02:16:42;;;;;;;;;2.00;0.00;;;;;6.53;73.28;99733.09;5056395;28;45427;-55
2022/01/09 02:19:11;;;;;;;;;1.00;1.00;;;;;6.50;73.97;99749.91;5055798;28;45537;-55
2022/01/09 02:21:40;;;;;;;;;0.00;0.00;;;;;6.48;73.98;99765.00;5056217;28;45379;-56
2022/01/09 02:24:05;;;;;;;;;1.25;0.75;;;;;6.47;73.74;99758.00;5037553;28;45618;-53
2022/01/09 02:26:31;;;;;;;;;2.50;1.00;;;;;6.48;74.20;99760.56;5037442;28;45522;-55
2022/01/09 02:28:56;;;;;;;;;0.00;0.00;;;;;6.51;73.77;99751.66;5055725;28;45622;-53
2022/01/09 02:31:22;;;;;;;;;1.50;0.00;;;;;6.44;71.79;99753.75;5056348;28;45721;-56
2022/01/09 02:33:47;;;;;;;;;2.00;0.25;;;;;6.44;72.21;99761.69;5037026;28;46751;-53
2022/01/09 02:36:13;;;;;;;;;0.00;0.00;;;;;6.50;71.83;99765.78;5056034;28;45392;-54
2022/01/09 02:38:38;;;;;;;;;0.25;0.25;;;;;6.39;72.18;99739.09;5055397;28;45355;-55
2022/01/09 02:41:04;;;;;;;;;0.75;0.25;;;;;6.43;72.14;99773.19;5055960;28;45332;-56
2022/01/09 02:43:29;;;;;;;;;1.00;1.00;;;;;6.47;71.67;99784.44;5055015;28;46032;-56
2022/01/09 02:46:12;;;;;;;;;0.00;0.00;;;;;6.51;71.31;99786.00;5037348;28;45368;-55
2022/01/09 02:48:39;;;;;;;;;1.00;0.00;;;;;6.50;71.75;99790.41;5055438;28;45393;-54
2022/01/09 02:51:10;;;;;;;;;1.00;1.00;;;;;6.52;71.80;99781.56;5055468;28;45452;-56
2022/01/09 02:53:37;;;;;;;;;1.00;0.00;;;;;6.56;71.08;99788.38;5054827;28;46235;-55
2022/01/09 02:56:05;;;;;;;;;1.25;0.50;;;;;6.49;71.42;99780.75;5055342;28;45358;-54
2022/01/09 02:58:32;;;;;;;;;0.00;0.00;;;;;6.45;71.45;99781.88;5061154;28;45300;-56
2022/01/09 03:00:57;;;;;;;;;0.00;0.00;;;;;6.39;71.68;99787.50;5040647;28;45517;-57
2022/01/09 03:03:23;;;;;;;;;1.25;0.00;;;;;6.38;71.59;99801.63;5036443;28;47009;-56
2022/01/09 03:05:48;;;;;;;;;0.00;0.00;;;;;6.37;71.86;99810.44;5055476;28;45238;-57
2022/01/09 03:08:14;;;;;;;;;1.50;0.00;;;;;6.35;72.52;99799.13;5055430;28;45297;-54
2022/01/09 03:10:39;;;;;;;;;0.00;0.00;;;;;6.34;72.17;99802.69;5037411;28;45505;-55
2022/01/09 03:13:06;;;;;;;;;0.75;0.00;;;;;6.33;72.38;99808.91;5054734;28;46077;-56
2022/01/09 03:15:32;;;;;;;;;0.00;0.00;;;;;6.34;72.10;99800.06;5055231;28;45436;-59
2022/01/09 03:17:57;;;;;;;;;0.00;0.00;;;;;6.32;72.78;99806.34;5038001;28;45377;-56
2022/01/09 03:20:25;;;;;;;;;4.75;1.00;;;;;6.35;72.64;99804.41;5059002;28;45413;-55
2022/01/09 03:22:51;;;;;;;;;2.00;1.00;;;;;6.38;72.02;99816.59;5058227;28;45324;-56
2022/01/09 03:25:16;;;;;;;;;4.00;0.50;;;;;6.38;72.63;99809.56;5058926;28;45340;-57
2022/01/09 03:27:45;;;;;;;;;0.00;0.00;;;;;6.44;71.60;99811.00;5058410;28;45263;-54
2022/01/09 03:30:11;;;;;;;;;1.00;0.00;;;;;6.44;71.96;99814.50;5058963;28;45491;-56
2022/01/09 03:32:38;;;;;;;;;0.00;0.00;;;;;6.46;71.90;99815.28;5023142;28;45369;-54
2022/01/09 03:35:06;;;;;;;;;1.75;1.00;;;;;6.49;72.21;99823.03;5058453;28;45458;-55
2022/01/09 03:37:32;;;;;;;;;1.00;0.25;;;;;6.54;72.28;99837.81;5039869;28;45304;-55
2022/01/09 03:39:57;;;;;;;;;2.00;0.00;;;;;6.52;72.54;99856.38;5058750;28;45224;-55
2022/01/09 03:42:23;;;;;;;;;2.50;0.25;;;;;6.45;72.30;99844.41;5058019;28;45804;-54
2022/01/09 03:44:48;;;;;;;;;0.00;0.00;;;;;6.47;72.79;99880.38;5059040;28;45199;-54
2022/01/09 03:47:14;;;;;;;;;4.00;0.00;;;;;6.39;73.58;99877.28;5058307;28;45353;-54
2022/01/09 03:49:40;;;;;;;;;1.50;1.50;;;;;6.33;73.63;99872.28;5058758;28;45948;-55
2022/01/09 03:52:06;;;;;;;;;1.00;0.00;;;;;6.24;74.14;99882.44;5058196;28;46196;-55
2022/01/09 03:54:31;;;;;;;;;0.75;0.00;;;;;6.17;75.31;99887.19;5040088;28;45414;-54
2022/01/09 03:56:57;;;;;;;;;0.00;0.00;;;;;6.12;76.33;99875.97;5057950;28;45392;-56
2022/01/09 03:59:23;;;;;;;;;0.75;0.00;;;;;6.04;75.89;99865.81;5058367;28;45390;-55
2022/01/09 04:01:49;;;;;;;;;0.50;0.00;;;;;6.00;76.26;99847.56;5057841;28;45354;-55
2022/01/09 04:04:14;;;;;;;;;0.00;0.00;;;;;5.91;76.37;99860.28;5059292;28;45403;-55
2022/01/09 04:06:45;;;;;;;;;0.50;0.50;;;;;5.83;75.89;99850.97;5069905;28;45458;-56
2022/01/09 04:09:18;;;;;;;;;0.00;0.00;;;;;5.76;75.95;99842.53;5078406;28;45417;-55
2022/01/09 04:11:45;;;;;;;;;7.00;1.00;;;;;5.72;76.97;99833.03;5060550;28;48345;-55
2022/01/09 04:14:12;;;;;;;;;0.00;0.00;;;;;5.73;77.24;99839.16;5039729;28;45485;-53
2022/01/09 04:16:37;;;;;;;;;1.00;0.00;;;;;5.66;76.42;99824.56;5057629;28;45440;-55
2022/01/09 04:19:03;;;;;;;;;2.00;0.00;;;;;5.70;75.84;99828.75;5058139;28;45387;-55
2022/01/09 04:21:29;;;;;;;;;0.25;0.25;;;;;5.72;75.50;99837.44;5057070;28;45872;-54
2022/01/09 04:23:55;;;;;;;;;2.25;0.00;;;;;5.63;76.20;99844.03;5057611;28;45507;-54
2022/01/09 04:26:21;;;;;;;;;4.00;0.00;;;;;5.64;75.85;99843.13;5057767;28;45671;-55
2022/01/09 04:28:47;;;;;;;;;1.75;0.00;;;;;5.72;76.43;99869.09;5039849;28;45301;-56
2022/01/09 04:31:13;;;;;;;;;1.75;0.00;;;;;5.74;75.68;99862.00;5038705;28;46671;-56
2022/01/09 04:33:40;;;;;;;;;0.00;0.00;;;;;5.76;76.09;99863.63;5057730;28;45356;-54
2022/01/09 04:36:05;;;;;;;;;0.00;0.00;;;;;5.80;75.94;99861.69;5056285;28;45689;-57
2022/01/09 04:38:31;;;;;;;;;0.00;0.00;;;;;5.80;76.02;99841.44;5057825;28;45481;-55
2022/01/09 04:40:56;;;;;;;;;0.00;0.00;;;;;5.80;75.62;99852.00;5057092;28;45435;-56
2022/01/09 04:43:22;;;;;;;;;1.00;1.00;;;;;5.82;76.49;99865.97;5058044;28;45446;-57
2022/01/09 04:45:48;;;;;;;;;3.50;0.00;;;;;5.82;75.02;99857.19;5057644;28;45549;-56
2022/01/09 04:48:14;;;;;;;;;0.00;0.00;;;;;5.82;75.68;99849.28;5058273;28;45543;-54
2022/01/09 04:50:43;;;;;;;;;4.75;1.50;;;;;5.85;75.61;99870.22;5056548;28;46747;-56
2022/01/09 04:53:09;;;;;;;;;3.25;0.00;;;;;5.88;75.78;99857.75;5039471;28;45534;-54
2022/01/09 04:55:41;;;;;;;;;0.50;0.50;;;;;5.91;75.74;99856.78;5055947;28;45486;-55
2022/01/09 04:58:06;;;;;;;;;0.00;0.00;;;;;5.91;76.67;99851.50;5039045;28;45609;-57
2022/01/09 05:00:32;;;;;;;;;1.75;1.00;;;;;5.85;77.10;99863.16;5054609;28;45453;-54
2022/01/09 05:02:57;;;;;;;;;1.00;0.00;;;;;5.81;76.77;99858.97;5046215;28;45256;-55
2022/01/09 05:05:24;;;;;;;;;0.00;0.00;;;;;5.86;76.64;99871.97;5057199;28;45246;-56
2022/01/09 05:07:49;;;;;;;;;2.00;1.00;;;;;5.85;76.53;99870.22;5057140;28;45280;-57
2022/01/09 05:10:15;;;;;;;;;1.00;0.00;;;;;5.84;76.21;99860.59;5056933;28;45724;-55
2022/01/09 05:12:41;;;;;;;;;1.00;0.00;;;;;5.88;76.54;99859.56;5038738;28;45371;-56
2022/01/09 05:15:08;;;;;;;;;0.75;0.75;;;;;5.82;76.16;99858.03;5063218;28;45458;-56
2022/01/09 05:17:34;;;;;;;;;0.00;0.00;;;;;5.94;75.97;99868.97;5061430;28;45414;-56
2022/01/09 05:20:00;;;;;;;;;6.00;1.00;;;;;5.95;75.96;99857.50;5038829;28;47656;-52
2022/01/09 05:22:29;;;;;;;;;1.00;0.75;;;;;5.98;76.79;99865.25;5038278;28;45883;-55
2022/01/09 05:24:58;;;;;;;;;2.00;0.75;;;;;5.96;76.46;99861.84;5057131;28;45280;-53
2022/01/09 05:27:25;;;;;;;;;1.50;0.00;;;;;5.99;76.20;99872.22;5056968;28;45877;-55
2022/01/09 05:29:51;;;;;;;;;0.00;0.00;;;;;5.98;75.70;99866.09;5056688;28;46354;-56
2022/01/09 05:32:16;;;;;;;;;2.00;0.00;;;;;5.98;76.67;99859.97;5038302;28;45448;-53
2022/01/09 05:34:42;;;;;;;;;2.00;0.00;;;;;5.96;76.16;99848.63;5056925;28;45522;-55
2022/01/09 05:37:08;;;;;;;;;0.00;0.00;;;;;6.07;76.63;99864.81;5038772;28;45568;-56
2022/01/09 05:39:34;;;;;;;;;4.25;0.00;;;;;6.13;76.04;99852.19;5056133;28;45402;-56
2022/01/09 05:42:04;;;;;;;;;4.00;1.00;;;;;6.16;75.33;99856.44;5055638;28;45365;-56
2022/01/09 05:44:31;;;;;;;;;3.00;0.00;;;;;6.19;75.61;99853.66;5056799;28;45319;-54
2022/01/09 05:46:57;;;;;;;;;1.00;0.00;;;;;6.14;74.76;99850.38;5055999;28;45323;-56
2022/01/09 05:49:22;;;;;;;;;0.00;0.00;;;;;6.19;75.40;99853.66;5056693;28;45291;-56
2022/01/09 05:51:48;;;;;;;;;2.00;0.00;;;;;6.28;74.55;99868.19;5056057;28;45261;-56
2022/01/09 05:54:13;;;;;;;;;1.00;1.00;;;;;6.22;75.57;99893.09;5056209;28;45209;-56
2022/01/09 05:56:38;;;;;;;;;2.00;0.00;;;;;6.10;76.24;99928.00;5056934;28;45331;-58
2022/01/09 05:59:04;;;;;;;;;5.00;1.00;;;;;6.19;76.99;99927.56;5055942;28;45390;-54
2022/01/09 06:01:29;;;;;;;;;3.50;1.75;;;;;6.29;76.58;99894.50;5056326;28;45316;-56
2022/01/09 06:03:54;;;;;;;;;1.50;0.00;;;;;6.37;76.73;99894.97;5037884;28;45299;-56
2022/01/09 06:06:20;;;;;;;;;1.00;1.00;;;;;6.35;75.99;99891.56;5056278;28;45232;-55
2022/01/09 06:08:46;;;;;;;;;3.25;1.00;;;;;6.40;75.72;99892.19;5037913;28;45417;-57
2022/01/09 06:11:12;;;;;;;;;1.25;1.25;;;;;6.46;75.47;99891.88;5056404;28;45355;-57
2022/01/09 06:13:37;;;;;;;;;5.00;1.75;;;;;6.43;74.21;99884.13;5055702;28;45430;-56
2022/01/09 06:16:03;;;;;;;;;2.00;2.00;;;;;6.44;75.11;99877.03;5056235;28;45426;-55
2022/01/09 06:18:29;;;;;;;;;4.00;0.50;;;;;6.51;74.97;99891.66;5037671;28;45540;-55
2022/01/09 06:20:55;;;;;;;;;2.25;0.00;;;;;6.54;75.13;99885.38;5064308;28;45463;-56
2022/01/09 06:23:20;;;;;;;;;1.00;1.00;;;;;6.52;74.90;99881.94;5059104;28;45401;-54
2022/01/09 06:25:52;;;;;;;;;1.00;1.00;;;;;6.51;74.56;99899.59;5056228;28;45537;-57
2022/01/09 06:28:18;;;;;;;;;4.50;0.50;;;;;6.48;74.71;99887.38;5055308;28;45362;-56
2022/01/09 06:30:45;;;;;;;;;1.75;0.25;;;;;6.49;74.63;99891.72;5055537;28;45469;-56
2022/01/09 06:33:11;;;;;;;;;0.75;0.00;;;;;6.48;74.68;99892.66;5055430;28;45395;-55
2022/01/09 06:35:37;;;;;;;;;4.00;0.25;;;;;6.49;74.30;99889.06;5056233;28;45154;-55
2022/01/09 06:38:03;;;;;;;;;0.00;0.00;;;;;6.46;74.28;99888.38;5055143;28;48457;-56
2022/01/09 06:40:29;;;;;;;;;0.25;0.25;;;;;6.39;74.30;99892.28;5055862;28;45458;-56
2022/01/09 06:42:54;;;;;;;;;1.00;0.00;;;;;6.40;74.42;99900.13;5055767;28;45320;-61
2022/01/09 06:45:22;;;;;;;;;0.00;0.00;;;;;6.40;74.63;99907.19;5037393;28;45284;-56
2022/01/09 06:47:48;;;;;;;;;1.75;0.00;;;;;6.42;75.33;99908.81;5055112;28;46973;-56
2022/01/09 06:50:15;;;;;;;;;0.75;0.75;;;;;6.45;74.69;99913.09;5055367;28;45434;-57
2022/01/09 06:52:41;;;;;;;;;1.75;1.50;;;;;6.42;74.90;99918.53;5039137;28;45557;-55
2022/01/09 06:55:08;;;;;;;;;0.00;0.00;;;;;6.38;74.40;99907.28;5058960;28;45327;-54
2022/01/09 06:57:33;;;;;;;;;0.00;0.00;;;;;6.39;74.05;99922.19;5058942;28;45933;-56
2022/01/09 06:59:59;;;;;;;;;2.25;0.00;;;;;6.37;74.35;99905.53;5058336;28;45414;-58
2022/01/09 07:02:24;;;;;;;;;0.25;0.00;;;;;6.38;75.13;99902.00;5058370;28;45445;-54
2022/01/09 07:04:50;;;;;;;;;0.00;0.00;;;;;6.32;74.22;99891.72;5059599;28;45541;-55
2022/01/09 07:07:15;;;;;;;;;0.25;0.25;;;;;6.34;74.30;99897.75;5058030;28;45514;-56
2022/01/09 07:09:41;;;;;;;;;1.00;0.00;;;;;6.33;74.75;99914.53;5058936;28;45653;-56
2022/01/09 07:12:08;;;;;;;;;0.00;0.00;;;;;6.32;74.71;99907.56;5040701;28;45497;-57
2022/01/09 07:14:33;;;;;;;;;0.00;0.00;;;;;6.30;75.03;99893.56;5059061;28;45431;-55
2022/01/09 07:16:59;;;;;;;;;0.00;0.00;;;;;6.35;74.49;99917.09;5058597;28;45464;-55
2022/01/09 07:19:24;;;;;;;;;1.75;0.75;;;;;6.30;73.69;99904.13;5040715;28;45406;-58
2022/01/09 07:21:49;;;;;;;;;0.00;0.00;;;;;6.31;74.28;99899.72;5058668;28;45603;-57
2022/01/09 07:24:15;;;;;;;;;0.00;0.00;;;;;6.31;74.36;99895.28;5059298;28;45553;-57
2022/01/09 07:26:40;;;;;;;;;2.00;0.00;;;;;6.30;74.10;99914.69;5065133;28;45856;-57
2022/01/09 07:29:05;;;;;;;;;0.00;0.00;;;;;6.24;75.20;99922.91;5064407;28;45311;-55
2022/01/09 07:31:31;;;;;;;;;0.00;0.00;;;;;6.09;75.05;99905.19;5038829;28;45370;-58
2022/01/09 07:33:57;;;;;;;;;0.00;0.00;;;;;6.13;75.51;99917.31;5059175;28;45213;-57
2022/01/09 07:36:22;;;;;;;;;0.00;0.00;;;;;6.10;77.09;99923.59;5040318;28;46167;-56
2022/01/09 07:38:47;;;;;;;;;1.00;0.00;;;;;6.09;76.73;99906.03;5058312;28;45314;-56
2022/01/09 07:41:14;;;;;;;;;0.00;0.00;;;;;6.06;76.27;99921.19;5058424;28;45268;-55
2022/01/09 07:43:41;;;;;;;;;0.00;0.00;;;;;6.02;76.56;99914.34;5058831;28;45229;-56
2022/01/09 07:46:06;;;;;;;;;0.00;0.00;;;;;5.95;76.54;99919.03;5039829;28;46909;-53
2022/01/09 07:48:32;;;;;;;;;0.00;0.00;;;;;5.90;76.61;99903.44;5058249;28;45872;-56
2022/01/09 07:50:57;;;;;;;;;0.00;0.00;;;;;5.87;76.93;99906.19;5058908;28;45426;-53
2022/01/09 07:53:23;;;;;;;;;1.00;0.00;;;;;5.86;77.33;99922.97;5058634;28;45586;-58
2022/01/09 07:55:53;;;;;;;;;0.00;0.00;;;;;5.84;76.93;99919.50;5057993;28;45429;-57
2022/01/09 07:58:20;;;;;;;;;0.00;0.00;;;;;5.84;77.82;99935.34;5058299;28;45414;-56
2022/01/09 08:00:45;;;;;;;;;0.00;0.00;;;;;5.82;77.32;99929.28;5058162;28;45514;-55
2022/01/09 08:03:12;;;;;;;;;0.25;0.00;;;;;5.81;78.15;99922.31;5039372;28;45470;-57
2022/01/09 08:05:37;;;;;;;;;0.00;0.00;;;;;5.82;79.13;99913.47;5058160;28;46214;-56
2022/01/09 08:08:03;;;;;;;;;0.00;0.00;;;;;5.78;79.27;99901.34;5058181;28;45484;-56
2022/01/09 08:10:29;;;;;;;;;0.00;0.00;;;;;5.81;79.81;99903.84;5058337;28;45495;-59
2022/01/09 08:12:54;;;;;;;;;0.75;0.00;;;;;5.79;78.52;99905.69;5058015;28;45573;-58
2022/01/09 08:15:20;;;;;;;;;0.00;0.00;;;;;5.79;78.28;99907.47;5057277;28;45354;-57
2022/01/09 08:17:46;;;;;;;;;0.00;0.00;;;;;5.74;77.87;99909.50;5049128;28;45427;-64
2022/01/09 08:20:14;;;;;;;;;0.00;0.00;;;;;5.79;78.54;99933.88;5057223;28;45302;-62
2022/01/09 08:22:41;;;;;;;;;0.00;0.00;;;;;5.80;78.04;99925.03;5040178;28;45324;-64
2022/01/09 08:25:10;;;;;;;;;0.00;0.00;;;;;5.80;77.57;99935.56;5057792;28;47131;-62
2022/01/09 08:27:36;;;;;;;;;3.75;0.25;;;;;5.66;77.56;99923.03;5057113;28;45528;-59
2022/01/09 08:30:05;;;;;;;;;0.00;0.00;;;;;5.76;78.40;99924.31;5034758;28;45374;-63
2022/01/09 08:32:30;;;;;;;;;0.00;0.00;;;;;5.78;77.13;99926.88;5060832;28;46077;-64
2022/01/09 08:34:56;;;;;;;;;0.25;0.00;;;;;5.79;77.63;99920.66;5038902;28;45499;-63
2022/01/09 08:37:21;;;;;;;;;0.00;0.00;;;;;5.77;77.39;99923.38;5067529;28;45467;-63
2022/01/09 08:39:47;;;;;;;;;0.50;0.00;;;;;5.84;77.91;99922.16;5055129;28;45462;-64
2022/01/09 08:42:12;;;;;;;;;0.75;0.00;;;;;5.93;78.33;99941.16;5055351;28;45560;-63
2022/01/09 08:44:38;;;;;;;;;1.50;0.50;;;;;5.94;78.08;99927.03;5038984;28;46187;-67
2022/01/09 08:47:04;;;;;;;;;0.00;0.00;;;;;5.98;77.20;99921.53;5057306;28;45382;-62
2022/01/09 08:49:30;;;;;;;;;1.00;1.00;;;;;6.01;76.81;99926.69;5056421;28;45940;-67
2022/01/09 08:51:56;;;;;;;;;0.00;0.00;;;;;6.03;76.78;99929.25;5049329;28;45558;-61
2022/01/09 08:54:21;;;;;;;;;1.00;0.00;;;;;5.99;76.31;99903.91;5057194;28;45354;-53
2022/01/09 08:56:47;;;;;;;;;0.00;0.00;;;;;6.15;76.42;99926.88;5057181;28;45354;-61
2022/01/09 08:59:12;;;;;;;;;0.25;0.00;;;;;6.17;76.62;99914.44;5057612;28;45480;-59
2022/01/09 09:01:38;;;;;;;;;0.00;0.00;;;;;6.20;76.08;99916.94;5057833;28;45581;-63
2022/01/09 09:04:05;;;;;;;;;2.00;0.75;;;;;6.29;75.81;99934.13;5039702;28;45975;-59
2022/01/09 09:06:34;;;;;;;;;5.75;0.00;;;;;6.35;75.84;99946.16;5039710;28;45359;-63
2022/01/09 09:09:02;;;;;;;;;0.00;0.00;;;;;6.37;75.71;99942.50;5038674;28;45458;-63
2022/01/09 09:11:28;;;;;;;;;1.00;1.00;;;;;6.48;75.89;99961.31;5057713;28;45641;-67
2022/01/09 09:13:54;;;;;;;;;1.00;0.00;;;;;6.46;76.28;99949.13;5039194;28;47895;-65
2022/01/09 09:16:20;;;;;;;;;1.00;1.00;;;;;6.54;75.50;99969.91;5055641;28;45464;-58
2022/01/09 09:18:47;;;;;;;;;0.00;0.00;;;;;6.61;75.79;99971.28;5056788;28;45278;-59
2022/01/09 09:21:13;;;;;;;;;1.00;1.00;;;;;6.61;75.96;99963.34;5057093;28;45339;-61
2022/01/09 09:23:38;;;;;;;;;1.00;1.00;;;;;6.70;75.78;99970.84;5056764;28;45313;-61
2022/01/09 09:26:04;;;;;;;;;1.75;0.00;;;;;6.70;75.94;99976.13;5056714;28;45419;-63
2022/01/09 09:28:29;;;;;;;;;0.00;0.00;;;;;6.70;76.13;99976.13;5053974;28;45506;-64
2022/01/09 09:30:55;;;;;;;;;1.00;0.00;;;;;6.68;75.99;99956.84;5055857;28;45760;-63
2022/01/09 09:33:20;;;;;;;;;1.00;0.00;;;;;6.66;76.07;99974.56;5055399;28;45462;-62
2022/01/09 09:35:46;;;;;;;;;0.75;0.00;;;;;6.75;77.60;99989.94;5039282;28;45359;-63
2022/01/09 09:38:11;;;;;;;;;1.00;1.00;;;;;6.62;78.51;99973.00;5053799;28;45261;-66
2022/01/09 09:40:37;;;;;;;;;0.75;0.75;;;;;6.60;79.24;99959.00;5057349;28;45689;-65
2022/01/09 09:43:03;;;;;;;;;1.00;1.00;;;;;6.57;81.10;99972.38;5050512;28;45470;-64
2022/01/09 09:45:29;;;;;;;;;1.50;1.50;;;;;6.50;79.69;99970.03;5053666;28;45458;-66
2022/01/09 09:47:54;;;;;;;;;4.75;4.00;;;;;6.53;80.50;99968.19;5056003;28;45721;-66
2022/01/09 09:50:20;;;;;;;;;10.25;10.00;;;;;6.50;80.00;99971.81;5038327;28;45261;-67
2022/01/09 09:52:48;;;;;;;;;5.50;4.00;;;;;6.36;79.32;99993.63;5056079;28;45684;-65
2022/01/09 09:55:16;;;;;;;;;0.00;0.00;;;;;6.37;81.19;99989.19;5036206;28;45573;-64
2022/01/09 09:57:42;;;;;;;;;5.00;2.00;;;;;6.44;79.81;100009.97;5054778;28;45320;-64
2022/01/09 10:00:13;;;;;;;;;2.00;2.00;;;;;6.47;79.96;99988.66;5056767;28;45621;-69
2022/01/09 10:02:44;;;;;;;;;1.75;1.75;;;;;6.43;80.48;99999.47;5054829;28;46048;-66
2022/01/09 10:05:10;;;;;;;;;1.50;1.50;;;;;6.49;79.51;100007.94;5055930;28;45531;-68
2022/01/09 10:07:36;;;;;;;;;1.25;1.25;;;;;6.48;79.56;100008.03;5055179;28;45449;-65
2022/01/09 10:10:09;;;;;;;;;1.00;1.00;;;;;6.49;79.88;100007.94;5055721;28;45319;-61
2022/01/09 10:12:36;;;;;;;;;2.00;2.00;;;;;6.56;79.02;99997.09;5055555;28;46282;-69
2022/01/09 10:15:06;;;;;;;;;1.75;1.75;;;;;6.65;78.70;99991.38;5054841;28;45610;-65
2022/01/09 10:17:33;;;;;;;;;4.75;1.00;;;;;6.66;77.86;99990.44;5037322;28;45363;-62
2022/01/09 10:20:15;;;;;;;;;0.25;0.25;;;;;6.65;77.93;99991.38;5037789;28;45628;-63
2022/01/09 10:22:44;;;;;;;;;2.00;0.00;;;;;6.58;77.48;100003.16;5053259;28;45506;-64
2022/01/09 10:25:18;;;;;;;;;1.75;1.00;;;;;6.53;77.10;99989.31;5054695;28;45653;-49
2022/01/09 10:27:44;;;;;;;;;1.00;1.00;;;;;6.59;77.21;99995.16;5053539;28;45486;-61
2022/01/09 10:30:11;;;;;;;;;0.00;0.00;;;;;6.60;78.08;99991.56;5033787;28;45497;-62
2022/01/09 10:32:36;;;;;;;;;4.00;1.00;;;;;6.62;79.14;99984.41;5055029;28;46324;-61
2022/01/09 10:35:13;;;;;;;;;0.75;0.75;;;;;6.76;78.36;100008.38;5049329;28;45589;-61
2022/01/09 10:37:41;;;;;;;;;2.00;2.00;;;;;6.84;78.65;100005.34;5028186;28;45497;-62
2022/01/09 10:40:09;;;;;;;;;3.50;3.50;;;;;6.93;78.08;99999.63;5056866;28;45556;-62
2022/01/09 10:42:36;;;;;;;;;2.00;1.00;;;;;6.98;77.88;99999.38;5055436;28;45208;-67
2022/01/09 10:45:20;;;;;;;;;5.00;5.00;;;;;6.94;76.64;100001.31;5036945;28;46002;-64
2022/01/09 10:47:46;;;;;;;;;10.25;10.25;;;;;6.75;76.60;100003.16;5054603;28;45748;-53
2022/01/09 10:50:23;;;;;;;;;9.50;9.25;;;;;6.75;77.96;100016.38;5038268;28;45425;-65
2022/01/09 10:52:49;;;;;;;;;12.50;9.00;;;;;6.72;77.87;100011.25;5064049;28;45982;-59
2022/01/09 10:55:14;;;;;;;;;12.25;6.00;;;;;6.70;78.08;100035.13;5053830;28;45518;-65
2022/01/09 10:57:41;;;;;;;;;7.00;4.00;;;;;6.58;77.39;100041.00;5054753;28;45447;-61
2022/01/09 11:00:11;;;;;;;;;5.00;5.00;;;;;6.41;77.43;100028.59;5055086;28;45529;-58
2022/01/09 11:02:36;;;;;;;;;4.00;4.00;;;;;6.48;78.33;100030.00;5051683;28;47115;-66
2022/01/09 11:05:02;;;;;;;;;4.00;4.00;;;;;6.58;78.68;100024.28;5054781;28;45329;-67
2022/01/09 11:07:28;;;;;;;;;1.00;1.00;;;;;6.59;76.76;100029.50;5054553;28;45503;-65
2022/01/09 11:09:55;;;;;;;;;2.00;2.00;;;;;6.60;77.33;100028.56;5054357;28;45497;-64
2022/01/09 11:12:23;;;;;;;;;6.00;6.00;;;;;6.61;77.46;100032.91;5053914;28;45473;-67
2022/01/09 11:14:51;;;;;;;;;3.00;3.00;;;;;6.63;77.15;100025.75;5054024;28;45500;-61
2022/01/09 11:17:18;;;;;;;;;2.00;2.00;;;;;6.68;76.73;100026.41;5053432;28;45262;-60
2022/01/09 11:19:44;;;;;;;;;2.25;1.00;;;;;6.68;77.36;100041.41;5054559;28;45422;-67
2022/01/09 11:22:12;;;;;;;;;3.00;3.00;;;;;6.66;77.36;100023.00;5033188;28;47412;-62
2022/01/09 11:24:59;;;;;;;;;2.00;2.00;;;;;6.69;78.39;100025.47;5049571;28;45347;-65
2022/01/09 11:27:37;;;;;;;;;4.75;3.50;;;;;6.81;77.27;100010.81;5054048;28;45367;-62
2022/01/09 11:30:14;;;;;;;;;2.00;0.75;;;;;6.86;76.63;100021.13;5053805;28;45430;-61
2022/01/09 11:33:05;;;;;;;;;2.00;2.00;;;;;6.95;77.17;100023.34;5035994;28;45488;-62
2022/01/09 11:35:55;;;;;;;;;4.00;2.00;;;;;6.96;75.97;100025.91;5035288;28;45729;-63
2022/01/09 11:38:29;;;;;;;;;3.00;3.00;;;;;6.99;76.33;100032.81;5052132;28;45453;-63